Time;durP1;ratioP1;P1;durP2;ratioP2;P2;SDS_P1;SDS_P2;PMS_P1;PMS_P2;Temp;Humidity;BMP_temperature;BMP_pressure;BME280_temperature;BME280_humidity;BME280_pressure;Samples;Min_cycle;Max_cycle;Signal;HPM_P1;HPM_P2
2022/10/12 00:01:19;;;;;;;37.67;23.67;;;13.40;69.00;;;;;;5000491;28;47047;-72
2022/10/12 00:03:44;;;;;;;41.80;23.13;;;13.40;69.30;;;;;;4998145;28;46512;-72
2022/10/12 00:06:16;;;;;;;45.63;22.73;;;13.50;69.30;;;;;;4998540;28;46469;-72
2022/10/12 00:08:44;;;;;;;49.33;24.63;;;13.50;69.10;;;;;;4999820;28;45773;-71
2022/10/12 00:11:20;;;;;;;43.87;23.43;;;13.50;69.10;;;;;;4999353;28;46752;-73
2022/10/12 00:13:46;;;;;;;47.80;22.03;;;13.60;69.20;;;;;;4999465;28;46372;-70
2022/10/12 00:16:13;;;;;;;41.03;22.63;;;13.60;69.00;;;;;;4996992;28;46399;-71
2022/10/12 00:18:39;;;;;;;43.47;24.90;;;13.70;68.80;;;;;;5015234;28;46313;-71
2022/10/12 00:21:05;;;;;;;37.93;23.30;;;13.70;68.70;;;;;;5002986;28;46434;-72
2022/10/12 00:23:31;;;;;;;41.07;23.57;;;13.70;68.80;;;;;;5003475;28;46711;-72
2022/10/12 00:26:04;;;;;;;43.93;23.83;;;13.70;68.80;;;;;;5002304;28;46517;-71
2022/10/12 00:28:30;;;;;;;40.50;23.80;;;13.80;68.50;;;;;;5004300;28;45769;-72
2022/10/12 00:30:55;;;;;;;46.80;23.30;;;13.80;68.50;;;;;;5003099;28;46576;-72
2022/10/12 00:33:21;;;;;;;41.50;24.20;;;13.90;68.20;;;;;;5002812;28;45833;-71
2022/10/12 00:35:47;;;;;;;37.77;23.10;;;13.90;68.00;;;;;;5002133;28;46316;-72
2022/10/12 00:38:12;;;;;;;42.43;24.40;;;13.90;68.00;;;;;;5002596;28;47111;-72
2022/10/12 00:40:38;;;;;;;45.50;23.80;;;13.90;68.00;;;;;;5001795;28;46355;-73
2022/10/12 00:43:03;;;;;;;35.50;23.13;;;14.00;68.20;;;;;;5002816;28;45876;-72
2022/10/12 00:45:31;;;;;;;38.30;21.67;;;14.00;68.10;;;;;;5002666;28;46434;-72
2022/10/12 00:47:58;;;;;;;39.73;23.17;;;14.10;68.20;;;;;;5002446;28;46434;-70
2022/10/12 00:50:26;;;;;;;39.60;23.17;;;14.00;69.30;;;;;;5001742;28;47905;-70
2022/10/12 00:53:00;;;;;;;42.03;24.33;;;13.90;68.60;;;;;;5003827;28;46342;-69
2022/10/12 00:55:31;;;;;;;42.50;22.87;;;14.00;68.20;;;;;;5003437;28;46658;-70
2022/10/12 00:57:58;;;;;;;38.93;21.50;;;14.10;68.20;;;;;;5001268;28;46705;-69
2022/10/12 01:00:25;;;;;;;41.33;23.97;;;14.10;68.20;;;;;;5003608;28;48879;-70
2022/10/12 01:02:52;;;;;;;46.03;23.93;;;14.20;68.30;;;;;;5003340;28;46415;-70
2022/10/12 01:05:19;;;;;;;38.13;22.60;;;14.20;68.20;;;;;;5015899;28;46414;-73
2022/10/12 01:07:44;;;;;;;39.03;24.43;;;14.20;68.20;;;;;;5000581;28;46733;-72
2022/10/12 01:10:10;;;;;;;37.23;22.20;;;14.20;68.30;;;;;;5002823;28;47166;-72
2022/10/12 01:12:38;;;;;;;39.83;22.17;;;14.20;68.40;;;;;;5002242;28;46629;-72
2022/10/12 01:15:05;;;;;;;34.87;22.00;;;14.10;68.20;;;;;;5002082;28;46290;-71
2022/10/12 01:18:08;;;;;;;37.23;22.20;;;14.00;68.20;;;;;;5002958;28;46441;-72
2022/10/12 01:20:55;;;;;;;40.60;24.00;;;13.90;68.70;;;;;;5001542;28;46218;-72
2022/10/12 01:23:54;;;;;;;41.40;22.33;;;13.90;68.90;;;;;;5002464;28;46317;-72
2022/10/12 01:26:29;;;;;;;36.07;23.57;;;13.90;68.80;;;;;;5014530;28;45845;-72
2022/10/12 01:29:33;;;;;;;34.50;22.10;;;13.90;68.60;;;;;;5002551;28;45948;-70
2022/10/12 01:32:20;;;;;;;36.07;22.27;;;14.00;68.20;;;;;;5017712;28;46324;-70
2022/10/12 01:35:00;;;;;;;39.00;23.60;;;14.00;68.20;;;;;;5003806;28;46468;-72
2022/10/12 01:37:35;;;;;;;48.37;23.70;;;14.00;68.10;;;;;;5005469;28;46474;-70
2022/10/12 01:40:06;;;;;;;39.60;21.83;;;14.00;68.10;;;;;;5004095;28;46412;-72
2022/10/12 01:42:37;;;;;;;46.93;24.10;;;14.00;68.10;;;;;;5002129;28;46314;-73
2022/10/12 01:45:07;;;;;;;41.83;23.77;;;14.00;68.10;;;;;;5000756;28;46417;-72
2022/10/12 01:47:34;;;;;;;39.00;23.40;;;13.80;68.70;;;;;;5000404;28;46439;-73
2022/10/12 01:50:01;;;;;;;37.17;22.40;;;13.80;68.80;;;;;;5002340;28;46627;-72
2022/10/12 01:52:37;;;;;;;37.27;22.47;;;13.80;68.80;;;;;;5000765;28;47551;-72
2022/10/12 01:55:26;;;;;;;38.73;22.47;;;13.80;68.50;;;;;;4998066;28;46331;-72
2022/10/12 01:58:06;;;;;;;37.60;23.73;;;13.80;68.80;;;;;;5001277;28;46371;-72
2022/10/12 02:00:59;;;;;;;41.47;23.47;;;13.80;68.70;;;;;;5000969;28;46510;-72
2022/10/12 02:03:33;;;;;;;48.33;24.10;;;13.80;68.80;;;;;;4999861;28;46359;-72
2022/10/12 02:06:07;;;;;;;41.13;25.10;;;13.70;69.30;;;;;;5001405;28;46211;-73
2022/10/12 02:08:38;;;;;;;45.97;24.37;;;13.70;69.30;;;;;;5011007;28;46398;-72
2022/10/12 02:11:13;;;;;;;39.70;23.13;;;13.80;69.10;;;;;;5004679;28;46351;-72
2022/10/12 02:14:07;;;;;;;40.07;23.10;;;13.90;68.40;;;;;;5001334;28;46990;-72
2022/10/12 02:16:38;;;;;;;44.40;23.03;;;13.90;68.00;;;;;;4999903;28;46474;-71
2022/10/12 02:19:08;;;;;;;38.30;23.43;;;14.00;68.10;;;;;;5001603;28;46351;-72
2022/10/12 02:21:34;;;;;;;42.93;21.37;;;14.00;68.20;;;;;;4999076;28;46457;-71
2022/10/12 02:24:05;;;;;;;41.77;22.90;;;14.00;68.10;;;;;;5001293;28;46378;-72
2022/10/12 02:26:34;;;;;;;38.30;21.53;;;14.10;68.20;;;;;;5014620;28;46427;-72
2022/10/12 02:29:05;;;;;;;32.07;21.07;;;14.10;68.20;;;;;;4999800;28;46485;-71
2022/10/12 02:31:42;;;;;;;39.00;23.03;;;14.10;68.20;;;;;;5000359;28;46564;-73
2022/10/12 02:34:27;;;;;;;36.33;22.57;;;14.00;68.10;;;;;;5001064;28;47038;-72
2022/10/12 02:37:01;;;;;;;42.67;24.43;;;14.10;68.20;;;;;;4999674;28;46327;-72
2022/10/12 02:39:39;;;;;;;43.63;25.30;;;14.00;68.20;;;;;;5000722;28;46397;-72
2022/10/12 02:42:11;;;;;;;41.93;23.87;;;14.10;68.20;;;;;;5000842;28;46825;-71
2022/10/12 02:44:38;;;;;;;33.63;21.33;;;14.00;68.10;;;;;;4998935;28;46455;-71
2022/10/12 02:47:06;;;;;;;37.40;24.90;;;14.00;68.20;;;;;;5007639;28;45851;-71
2022/10/12 02:49:34;;;;;;;36.30;23.33;;;13.90;68.00;;;;;;5000118;28;46447;-71
2022/10/12 02:52:04;;;;;;;42.97;25.30;;;13.90;68.00;;;;;;5000746;28;46511;-71
2022/10/12 02:54:30;;;;;;;39.47;24.83;;;13.80;68.00;;;;;;4999866;28;48486;-71
2022/10/12 02:56:56;;;;;;;44.97;24.97;;;13.80;68.70;;;;;;5000650;28;47014;-71
2022/10/12 02:59:21;;;;;;;44.13;25.47;;;13.70;68.80;;;;;;4999778;28;46330;-71
2022/10/12 03:01:48;;;;;;;43.60;24.87;;;13.80;68.70;;;;;;5001566;28;45868;-71
2022/10/12 03:04:13;;;;;;;36.83;21.03;;;13.90;68.10;;;;;;5000622;28;47278;-70
2022/10/12 03:06:41;;;;;;;35.40;22.00;;;13.90;68.00;;;;;;4999176;28;46379;-71
2022/10/12 03:09:07;;;;;;;48.07;25.80;;;13.90;68.00;;;;;;5000561;28;46496;-71
2022/10/12 03:11:32;;;;;;;38.87;23.30;;;13.80;67.90;;;;;;4999976;28;46465;-71
2022/10/12 03:13:58;;;;;;;44.33;24.70;;;13.70;68.50;;;;;;4998403;28;47209;-71
2022/10/12 03:16:24;;;;;;;43.27;24.03;;;13.50;69.20;;;;;;5000147;28;46389;-71
2022/10/12 03:18:50;;;;;;;40.13;23.87;;;13.50;69.80;;;;;;5000154;28;46449;-71
2022/10/12 03:21:15;;;;;;;39.50;24.07;;;13.40;70.00;;;;;;5000632;28;46949;-71
2022/10/12 03:23:41;;;;;;;50.43;25.57;;;13.40;70.00;;;;;;5000234;28;46382;-71
2022/10/12 03:26:07;;;;;;;37.20;22.60;;;13.40;69.90;;;;;;4997082;28;46446;-71
2022/10/12 03:28:33;;;;;;;38.63;24.17;;;13.50;70.00;;;;;;4999935;28;46422;-71
2022/10/12 03:31:00;;;;;;;45.17;23.93;;;13.40;69.90;;;;;;5000436;28;46461;-71
2022/10/12 03:33:25;;;;;;;40.80;23.40;;;13.30;70.00;;;;;;5001274;28;46384;-72
2022/10/12 03:35:51;;;;;;;44.47;23.37;;;13.30;70.10;;;;;;5000062;28;46380;-71
2022/10/12 03:38:18;;;;;;;46.07;24.80;;;13.30;70.00;;;;;;4998272;28;46310;-71
2022/10/12 03:40:44;;;;;;;40.43;24.77;;;13.30;69.90;;;;;;4999441;28;46415;-72
2022/10/12 03:43:10;;;;;;;42.10;26.17;;;13.30;69.80;;;;;;4999304;28;46353;-72
2022/10/12 03:45:36;;;;;;;47.30;25.20;;;13.30;69.90;;;;;;4999234;28;46462;-71
2022/10/12 03:48:03;;;;;;;48.90;25.63;;;13.30;70.00;;;;;;4999801;28;45802;-71
2022/10/12 03:50:28;;;;;;;49.47;26.17;;;13.20;70.20;;;;;;5000353;28;46320;-71
2022/10/12 03:52:54;;;;;;;54.13;26.87;;;13.30;70.10;;;;;;5000453;28;46413;-71
2022/10/12 03:55:20;;;;;;;54.47;24.73;;;13.20;70.10;;;;;;5006272;28;46362;-71
2022/10/12 03:57:45;;;;;;;49.03;26.17;;;13.20;70.10;;;;;;5004432;28;46482;-73
2022/10/12 04:00:12;;;;;;;43.70;26.63;;;13.20;70.10;;;;;;5006651;28;46659;-71
2022/10/12 04:02:39;;;;;;;48.73;27.43;;;13.20;70.10;;;;;;5005334;28;46704;-71
2022/10/12 04:05:05;;;;;;;61.10;32.50;;;13.20;70.00;;;;;;5004298;28;46394;-71
2022/10/12 04:07:31;;;;;;;48.87;28.83;;;13.20;69.80;;;;;;5004146;28;46741;-71
2022/10/12 04:09:56;;;;;;;47.53;26.80;;;13.30;69.90;;;;;;5005623;28;46584;-72
2022/10/12 04:12:22;;;;;;;42.63;25.10;;;13.20;70.00;;;;;;5006118;28;46459;-70
2022/10/12 04:14:47;;;;;;;54.53;26.83;;;13.20;70.10;;;;;;5004534;28;46340;-71
2022/10/12 04:17:17;;;;;;;46.00;26.00;;;13.20;69.90;;;;;;5006272;28;46339;-71
2022/10/12 04:19:43;;;;;;;45.73;27.30;;;13.10;70.10;;;;;;5004222;28;46443;-71
2022/10/12 04:22:09;;;;;;;44.30;25.13;;;13.10;70.20;;;;;;5006370;28;46429;-71
2022/10/12 04:24:35;;;;;;;43.83;26.23;;;13.00;70.50;;;;;;5007081;28;46438;-70
2022/10/12 04:27:00;;;;;;;41.13;25.23;;;13.00;70.90;;;;;;5005809;28;46513;-71
2022/10/12 04:29:26;;;;;;;40.17;25.23;;;12.80;71.20;;;;;;5004747;28;46640;-72
2022/10/12 04:31:52;;;;;;;47.53;28.10;;;12.80;71.60;;;;;;5006825;28;46390;-72
2022/10/12 04:34:18;;;;;;;39.50;27.00;;;12.70;71.70;;;;;;5005348;28;45797;-72
2022/10/12 04:36:43;;;;;;;41.17;26.10;;;12.70;71.80;;;;;;5004902;28;45769;-73
2022/10/12 04:39:09;;;;;;;52.83;26.80;;;12.70;71.80;;;;;;5006643;28;46716;-72
2022/10/12 04:41:34;;;;;;;61.90;28.70;;;12.60;71.90;;;;;;5006286;28;46386;-72
2022/10/12 04:44:00;;;;;;;52.10;28.50;;;12.60;71.90;;;;;;5005837;28;46379;-72
2022/10/12 04:46:26;;;;;;;44.60;26.77;;;12.60;71.70;;;;;;5005455;28;46432;-71
2022/10/12 04:48:51;;;;;;;47.57;27.57;;;12.70;71.70;;;;;;5007199;28;46309;-69
2022/10/12 04:51:17;;;;;;;52.77;28.57;;;12.70;72.90;;;;;;5007040;28;47307;-70
2022/10/12 04:53:42;;;;;;;43.70;26.60;;;12.70;71.70;;;;;;5004921;28;46743;-70
2022/10/12 04:56:08;;;;;;;57.97;29.73;;;12.70;71.30;;;;;;5006120;28;46458;-70
2022/10/12 04:58:34;;;;;;;51.43;29.47;;;12.80;70.90;;;;;;5005878;28;46422;-70
2022/10/12 05:01:00;;;;;;;48.50;29.17;;;12.90;70.90;;;;;;5005865;28;46417;-70
2022/10/12 05:03:25;;;;;;;46.47;27.40;;;12.90;70.90;;;;;;5006869;28;46302;-70
2022/10/12 05:05:51;;;;;;;51.33;28.07;;;13.00;70.50;;;;;;5002700;28;46398;-70
2022/10/12 05:08:17;;;;;;;48.97;28.60;;;13.00;70.30;;;;;;5002563;28;46521;-70
2022/10/12 05:10:43;;;;;;;60.07;31.97;;;13.20;69.80;;;;;;5001923;28;46339;-70
2022/10/12 05:13:08;;;;;;;49.87;29.60;;;13.20;69.40;;;;;;5002043;28;46420;-70
2022/10/12 05:15:34;;;;;;;48.70;30.70;;;13.20;69.70;;;;;;5000843;28;46467;-70
2022/10/12 05:17:59;;;;;;;52.37;30.77;;;13.10;69.90;;;;;;5001898;28;46342;-68
2022/10/12 05:20:25;;;;;;;47.93;29.43;;;13.10;70.10;;;;;;5001495;28;46277;-71
2022/10/12 05:22:51;;;;;;;51.80;29.60;;;13.10;70.40;;;;;;5002267;28;46441;-72
2022/10/12 05:25:18;;;;;;;45.10;28.30;;;13.20;70.10;;;;;;4999958;28;46385;-71
2022/10/12 05:27:44;;;;;;;49.87;27.40;;;13.20;70.00;;;;;;5001931;28;46552;-72
2022/10/12 05:30:10;;;;;;;44.53;27.57;;;13.20;69.90;;;;;;5002334;28;47194;-72
2022/10/12 05:32:35;;;;;;;47.27;29.73;;;13.10;70.30;;;;;;4999219;28;46561;-71
2022/10/12 05:35:01;;;;;;;44.90;28.77;;;13.10;70.70;;;;;;5002248;28;46839;-70
2022/10/12 05:37:27;;;;;;;51.07;31.30;;;13.10;70.80;;;;;;5001708;28;46488;-72
2022/10/12 05:39:53;;;;;;;49.63;29.60;;;13.00;71.10;;;;;;5001410;28;47107;-72
2022/10/12 05:42:18;;;;;;;49.40;30.63;;;13.00;71.50;;;;;;5001911;28;46358;-72
2022/10/12 05:44:44;;;;;;;50.10;30.70;;;13.00;71.30;;;;;;5001060;28;46637;-71
2022/10/12 05:47:10;;;;;;;49.47;28.50;;;13.20;70.70;;;;;;5000849;28;46310;-71
2022/10/12 05:49:35;;;;;;;56.87;31.60;;;13.30;70.30;;;;;;5000090;28;47020;-71
2022/10/12 05:52:01;;;;;;;44.77;28.80;;;13.20;70.00;;;;;;5001955;28;46473;-72
2022/10/12 05:54:27;;;;;;;48.93;29.00;;;13.20;70.50;;;;;;5000998;28;45720;-71
2022/10/12 05:56:52;;;;;;;50.47;28.90;;;13.30;70.50;;;;;;5000405;28;46647;-71
2022/10/12 05:59:18;;;;;;;53.77;32.30;;;13.40;70.10;;;;;;5001319;28;46415;-71
2022/10/12 06:01:44;;;;;;;63.37;30.07;;;13.30;70.10;;;;;;5001076;28;46438;-71
2022/10/12 06:04:11;;;;;;;55.33;30.57;;;13.30;70.30;;;;;;5002068;28;46442;-71
2022/10/12 06:06:37;;;;;;;50.40;30.23;;;13.30;70.20;;;;;;5000693;28;46696;-71
2022/10/12 06:09:03;;;;;;;60.57;28.90;;;13.40;70.00;;;;;;5002350;28;47304;-71
2022/10/12 06:11:28;;;;;;;55.63;28.40;;;13.40;70.10;;;;;;4999341;28;46419;-69
2022/10/12 06:13:54;;;;;;;51.70;28.87;;;13.30;70.50;;;;;;5001395;28;46446;-70
2022/10/12 06:16:20;;;;;;;59.13;29.30;;;13.30;70.80;;;;;;4999302;28;46410;-70
2022/10/12 06:18:45;;;;;;;53.47;30.30;;;13.30;71.00;;;;;;4999695;28;48845;-72
2022/10/12 06:21:11;;;;;;;53.50;29.33;;;13.30;71.00;;;;;;4999450;28;46472;-72
2022/10/12 06:23:37;;;;;;;60.67;29.83;;;13.30;71.00;;;;;;5000963;28;46515;-72
2022/10/12 06:26:02;;;;;;;59.80;28.13;;;13.30;70.70;;;;;;4997926;28;46257;-69
2022/10/12 06:28:28;;;;;;;61.03;32.33;;;13.30;70.70;;;;;;5001265;28;47708;-72
2022/10/12 06:30:55;;;;;;;64.47;31.23;;;13.30;70.90;;;;;;4999480;28;45920;-72
2022/10/12 06:33:22;;;;;;;58.63;31.80;;;13.20;71.00;;;;;;5000514;28;46561;-72
2022/10/12 06:35:48;;;;;;;67.00;30.07;;;13.20;71.30;;;;;;5000014;28;46628;-72
2022/10/12 06:38:13;;;;;;;75.77;31.93;;;13.10;71.50;;;;;;5000240;28;46343;-71
2022/10/12 06:40:39;;;;;;;59.90;32.43;;;13.10;71.70;;;;;;5000419;28;46336;-71
2022/10/12 06:43:05;;;;;;;70.33;32.20;;;13.10;71.60;;;;;;4999917;28;46462;-71
2022/10/12 06:45:31;;;;;;;86.10;33.27;;;13.10;71.70;;;;;;4998917;28;46460;-72
2022/10/12 06:47:57;;;;;;;83.97;34.67;;;13.10;72.00;;;;;;4998411;28;46362;-71
2022/10/12 06:50:23;;;;;;;79.97;34.97;;;13.10;72.20;;;;;;5000599;28;46364;-71
2022/10/12 06:52:49;;;;;;;77.30;33.77;;;13.10;72.00;;;;;;4999755;28;46418;-72
2022/10/12 06:55:15;;;;;;;77.63;35.00;;;13.20;71.60;;;;;;5001289;28;46673;-71
2022/10/12 06:57:40;;;;;;;96.33;35.33;;;13.20;71.60;;;;;;4999359;28;47101;-70
2022/10/12 07:00:07;;;;;;;90.20;37.27;;;13.20;71.50;;;;;;4998931;28;46510;-71
2022/10/12 07:02:34;;;;;;;93.63;34.97;;;13.20;71.70;;;;;;5000818;28;46442;-71
2022/10/12 07:05:00;;;;;;;95.13;38.07;;;13.30;71.60;;;;;;5014071;28;46280;-71
2022/10/12 07:07:28;;;;;;;106.20;37.00;;;13.40;71.40;;;;;;5000902;28;47044;-71
2022/10/12 07:09:53;;;;;;;107.60;37.13;;;13.40;71.10;;;;;;4999405;28;46422;-71
2022/10/12 07:12:19;;;;;;;114.40;38.07;;;13.50;70.90;;;;;;4999631;28;46440;-71
2022/10/12 07:14:44;;;;;;;83.03;35.90;;;13.60;70.50;;;;;;4999537;28;46561;-72
2022/10/12 07:17:10;;;;;;;89.17;36.40;;;13.70;70.00;;;;;;5000127;28;47459;-71
2022/10/12 07:19:35;;;;;;;89.70;36.20;;;13.90;69.70;;;;;;5002099;28;46554;-71
2022/10/12 07:22:01;;;;;;;77.53;36.00;;;13.80;69.90;;;;;;5000421;28;46355;-71
2022/10/12 07:24:34;;;;;;;84.43;35.60;;;13.80;70.20;;;;;;4998779;28;45907;-71
2022/10/12 07:27:01;;;;;;;80.37;34.67;;;13.90;69.80;;;;;;4999483;28;46996;-69
2022/10/12 07:29:28;;;;;;;81.87;36.40;;;14.00;69.40;;;;;;5000276;28;46442;-72
2022/10/12 07:31:53;;;;;;;73.83;34.80;;;13.90;69.50;;;;;;4999788;28;46379;-71
2022/10/12 07:34:19;;;;;;;68.03;34.27;;;13.80;69.90;;;;;;5001264;28;46299;-71
2022/10/12 07:36:44;;;;;;;67.30;33.20;;;13.80;70.00;;;;;;4998541;28;46949;-71
2022/10/12 07:39:10;;;;;;;79.97;35.10;;;13.80;70.40;;;;;;5000730;28;46588;-72
2022/10/12 07:41:35;;;;;;;73.03;36.00;;;13.80;70.20;;;;;;5000271;28;46397;-71
2022/10/12 07:44:01;;;;;;;85.13;36.73;;;13.80;70.20;;;;;;4998474;28;46307;-71
2022/10/12 07:46:27;;;;;;;83.13;36.60;;;13.90;70.20;;;;;;4999876;28;46996;-71
2022/10/12 07:48:52;;;;;;;86.93;35.93;;;13.90;69.90;;;;;;4993614;28;46631;-71
2022/10/12 07:51:18;;;;;;;83.23;37.10;;;13.90;69.80;;;;;;4997935;28;46355;-74
2022/10/12 07:53:44;;;;;;;82.50;36.93;;;13.90;70.10;;;;;;4999370;28;46491;-73
2022/10/12 07:56:14;;;;;;;73.03;35.07;;;13.90;70.20;;;;;;4999333;28;46525;-73
2022/10/12 07:58:41;;;;;;;78.20;36.07;;;14.00;69.80;;;;;;4999909;28;46391;-73
2022/10/12 08:01:08;;;;;;;68.10;34.70;;;14.20;69.20;;;;;;4996874;28;46494;-73
2022/10/12 08:03:34;;;;;;;71.47;33.97;;;14.40;68.50;;;;;;4997865;28;46669;-73
2022/10/12 08:06:11;;;;;;;68.33;32.97;;;14.50;68.60;;;;;;4998694;28;48194;-74
2022/10/12 08:08:37;;;;;;;81.00;36.27;;;14.50;68.60;;;;;;4995730;28;46404;-73
2022/10/12 08:11:03;;;;;;;75.53;36.27;;;14.60;68.70;;;;;;5000143;28;46490;-73
2022/10/12 08:13:29;;;;;;;82.40;35.43;;;14.70;68.10;;;;;;4995162;28;46562;-73
2022/10/12 08:15:55;;;;;;;83.13;35.10;;;14.80;67.70;;;;;;4997904;28;46612;-70
2022/10/12 08:18:21;;;;;;;69.97;36.97;;;14.80;67.60;;;;;;4999981;28;46430;-73
2022/10/12 08:20:46;;;;;;;75.63;35.00;;;14.80;67.80;;;;;;5003471;28;46367;-72
2022/10/12 08:23:12;;;;;;;86.43;39.60;;;14.80;68.20;;;;;;4999593;28;46632;-71
2022/10/12 08:25:37;;;;;;;80.23;36.53;;;14.80;68.10;;;;;;5001864;28;46490;-72
2022/10/12 08:28:04;;;;;;;61.33;33.03;;;14.80;68.20;;;;;;4999692;28;46472;-72
2022/10/12 08:30:29;;;;;;;78.87;36.30;;;15.00;67.40;;;;;;4999100;28;46316;-72
2022/10/12 08:32:55;;;;;;;77.70;35.50;;;15.00;68.20;;;;;;4999435;28;46456;-72
2022/10/12 08:35:21;;;;;;;74.20;35.10;;;14.90;67.80;;;;;;4998743;28;46513;-71
2022/10/12 08:37:46;;;;;;;65.13;35.00;;;14.80;68.30;;;;;;4995826;28;46466;-70
2022/10/12 08:40:27;;;;;;;81.83;38.53;;;14.80;68.30;;;;;;4996456;28;46390;-72
2022/10/12 08:43:16;;;;;;;65.03;34.40;;;14.90;68.10;;;;;;5002231;28;46515;-71
2022/10/12 08:45:57;;;;;;;72.33;35.77;;;14.90;67.60;;;;;;5002383;28;47323;-71
2022/10/12 08:48:41;;;;;;;64.57;34.30;;;15.00;67.60;;;;;;4999754;28;46354;-71
2022/10/12 08:51:18;;;;;;;55.93;30.50;;;15.10;67.50;;;;;;5003280;28;46386;-72
2022/10/12 08:54:04;;;;;;;56.90;30.90;;;15.30;66.90;;;;;;5001000;28;46382;-72
2022/10/12 08:56:30;;;;;;;53.80;28.67;;;15.50;66.20;;;;;;4999967;28;46485;-72
2022/10/12 08:58:56;;;;;;;58.43;31.60;;;15.60;65.60;;;;;;5000699;28;46554;-72
2022/10/12 09:01:42;;;;;;;60.60;31.27;;;15.80;65.10;;;;;;5002726;28;46449;-72
2022/10/12 09:04:44;;;;;;;51.03;29.30;;;15.90;64.90;;;;;;5002961;28;46450;-72
2022/10/12 09:07:26;;;;;;;53.90;30.20;;;16.10;64.60;;;;;;5000977;28;46645;-72
2022/10/12 09:10:21;;;;;;;50.93;30.20;;;16.00;64.70;;;;;;5001537;28;46383;-72
2022/10/12 09:13:05;;;;;;;52.43;29.53;;;16.20;64.50;;;;;;5003173;28;46314;-72
2022/10/12 09:15:35;;;;;;;60.00;30.10;;;16.20;64.40;;;;;;5017093;28;46636;-72
2022/10/12 09:18:10;;;;;;;57.00;31.10;;;16.20;64.40;;;;;;5000420;28;46702;-72
2022/10/12 09:20:49;;;;;;;61.10;30.57;;;16.30;64.50;;;;;;5002337;28;46219;-72
2022/10/12 09:23:30;;;;;;;50.47;30.50;;;16.30;64.30;;;;;;5000964;28;46361;-72
2022/10/12 09:26:11;;;;;;;49.40;28.83;;;16.30;64.10;;;;;;5003550;28;46433;-73
2022/10/12 09:28:44;;;;;;;62.60;31.03;;;16.50;63.60;;;;;;5004383;28;46546;-72
2022/10/12 09:31:28;;;;;;;47.03;28.07;;;16.70;62.70;;;;;;5000824;28;46528;-72
2022/10/12 09:33:57;;;;;;;50.33;29.13;;;16.90;62.30;;;;;;5002811;28;46318;-72
2022/10/12 09:36:26;;;;;;;45.60;26.43;;;16.90;62.10;;;;;;5001905;28;46462;-72
2022/10/12 09:38:52;;;;;;;46.83;27.50;;;16.90;61.10;;;;;;5001924;28;46485;-72
2022/10/12 09:41:24;;;;;;;45.70;26.53;;;16.70;61.10;;;;;;5002830;28;45776;-73
2022/10/12 09:43:58;;;;;;;48.60;27.63;;;16.80;61.20;;;;;;5001148;28;46417;-73
2022/10/12 09:46:30;;;;;;;46.70;25.70;;;16.90;61.10;;;;;;5001914;28;46545;-72
2022/10/12 09:48:59;;;;;;;44.17;26.50;;;16.90;60.80;;;;;;4999811;28;46573;-72
2022/10/12 09:51:27;;;;;;;43.03;24.30;;;16.90;61.00;;;;;;5001186;28;46433;-72
2022/10/12 09:53:54;;;;;;;43.90;26.80;;;16.90;60.20;;;;;;5001804;28;46367;-73
2022/10/12 09:56:40;;;;;;;45.30;26.37;;;16.90;60.60;;;;;;5002060;28;46296;-72
2022/10/12 09:59:27;;;;;;;44.93;25.40;;;17.20;60.00;;;;;;5001654;28;46417;-72
2022/10/12 10:02:07;;;;;;;45.40;24.60;;;17.20;59.50;;;;;;4997909;28;46486;-73
2022/10/12 10:04:33;;;;;;;37.90;22.33;;;17.20;58.80;;;;;;5000155;28;46450;-73
2022/10/12 10:07:17;;;;;;;38.73;22.67;;;17.10;59.20;;;;;;4999546;28;46279;-72
2022/10/12 10:09:43;;;;;;;38.97;23.33;;;17.30;58.70;;;;;;4999194;28;46883;-72
2022/10/12 10:12:24;;;;;;;40.13;25.00;;;17.50;58.60;;;;;;4997485;28;45725;-73
2022/10/12 10:14:51;;;;;;;37.10;23.20;;;17.60;58.70;;;;;;5001750;28;46465;-73
2022/10/12 10:17:27;;;;;;;38.03;22.20;;;17.90;57.40;;;;;;5001267;28;45936;-72
2022/10/12 10:19:55;;;;;;;39.67;23.20;;;17.80;57.20;;;;;;5002140;28;47131;-72
2022/10/12 10:22:22;;;;;;;38.70;21.40;;;17.90;58.30;;;;;;5001940;28;46358;-72
2022/10/12 10:24:54;;;;;;;39.93;21.17;;;17.90;56.80;;;;;;5000378;28;46441;-72
2022/10/12 10:27:37;;;;;;;36.67;23.43;;;17.80;56.90;;;;;;5001077;28;45867;-73
2022/10/12 10:30:15;;;;;;;41.03;21.40;;;17.60;57.00;;;;;;5002871;28;46437;-72
2022/10/12 10:32:41;;;;;;;39.00;21.50;;;17.70;56.90;;;;;;5000052;28;46366;-73
2022/10/12 10:35:10;;;;;;;35.47;20.77;;;17.80;56.80;;;;;;5002326;28;46635;-72
2022/10/12 10:37:37;;;;;;;36.40;22.03;;;17.70;56.50;;;;;;5000846;28;46590;-73
2022/10/12 10:40:03;;;;;;;39.70;23.20;;;17.60;56.60;;;;;;5000936;28;47451;-73
2022/10/12 10:42:31;;;;;;;37.93;22.00;;;17.60;56.60;;;;;;4999142;28;46355;-72
2022/10/12 10:45:05;;;;;;;37.30;20.57;;;17.60;56.60;;;;;;5001916;28;46493;-73
2022/10/12 10:47:32;;;;;;;36.80;21.20;;;17.60;56.10;;;;;;5002608;28;46809;-73
2022/10/12 10:50:00;;;;;;;34.77;19.67;;;17.80;55.70;;;;;;5000376;28;48008;-73
2022/10/12 10:52:33;;;;;;;37.73;20.80;;;17.80;55.50;;;;;;5000092;28;46388;-72
2022/10/12 10:55:07;;;;;;;33.83;19.60;;;17.80;55.20;;;;;;5001680;28;46661;-73
2022/10/12 10:57:35;;;;;;;50.80;27.47;;;17.80;54.30;;;;;;4999978;28;45929;-73
2022/10/12 11:00:10;;;;;;;35.80;18.13;;;17.80;54.40;;;;;;4998604;28;46740;-72
2022/10/12 11:02:42;;;;;;;32.90;20.57;;;17.90;54.30;;;;;;4999717;28;46455;-73
2022/10/12 11:05:15;;;;;;;33.40;20.70;;;17.60;56.10;;;;;;4999538;28;46260;-72
2022/10/12 11:07:47;;;;;;;41.20;19.73;;;17.50;55.70;;;;;;4999108;28;46418;-73
2022/10/12 11:10:41;;;;;;;33.17;19.70;;;17.40;55.50;;;;;;4999860;28;46973;-72
2022/10/12 11:13:19;;;;;;;36.13;19.43;;;17.60;55.00;;;;;;4999132;28;46363;-73
2022/10/12 11:16:22;;;;;;;34.77;19.93;;;17.70;54.60;;;;;;4998000;28;45833;-72
2022/10/12 11:19:05;;;;;;;29.33;17.50;;;17.80;54.40;;;;;;4997742;28;46367;-72
2022/10/12 11:21:42;;;;;;;36.53;18.53;;;17.80;54.20;;;;;;5000941;28;46497;-73
2022/10/12 11:24:19;;;;;;;32.10;18.37;;;17.70;53.80;;;;;;5002532;28;46308;-72
2022/10/12 11:26:53;;;;;;;31.33;18.50;;;17.70;54.00;;;;;;4999884;28;46559;-72
2022/10/12 11:29:19;;;;;;;32.17;18.10;;;18.00;53.10;;;;;;4998225;28;46343;-72
2022/10/12 11:32:01;;;;;;;28.03;15.50;;;18.00;53.10;;;;;;5000156;28;46371;-72
2022/10/12 11:34:31;;;;;;;29.07;17.77;;;18.10;52.20;;;;;;4996566;28;46476;-73
2022/10/12 11:36:57;;;;;;;30.23;19.13;;;18.10;51.70;;;;;;4998896;28;46294;-73
2022/10/12 11:39:35;;;;;;;28.80;16.73;;;18.20;51.40;;;;;;5001113;28;46635;-73
2022/10/12 11:42:03;;;;;;;31.63;15.90;;;18.30;51.40;;;;;;4999728;28;46364;-73
2022/10/12 11:44:42;;;;;;;33.73;16.97;;;18.20;51.80;;;;;;4997951;28;46570;-73
2022/10/12 11:47:22;;;;;;;38.17;18.53;;;18.10;53.20;;;;;;4996693;28;46490;-72
2022/10/12 11:49:59;;;;;;;33.90;15.77;;;18.00;51.60;;;;;;5000192;28;46404;-73
2022/10/12 11:52:28;;;;;;;127.60;47.10;;;18.00;52.40;;;;;;4998064;28;46462;-72
2022/10/12 11:55:25;;;;;;;27.37;16.17;;;18.20;51.10;;;;;;4997565;28;46820;-72
2022/10/12 11:57:53;;;;;;;32.83;16.17;;;18.30;50.50;;;;;;5001582;28;46165;-73
2022/10/12 12:00:36;;;;;;;31.53;16.00;;;18.20;51.10;;;;;;5001350;28;46398;-72
2022/10/12 12:03:14;;;;;;;34.90;17.00;;;18.00;51.10;;;;;;4997088;28;46034;-72
2022/10/12 12:05:40;;;;;;;26.63;15.83;;;17.90;51.60;;;;;;5001007;28;46400;-73
2022/10/12 12:08:05;;;;;;;31.50;16.40;;;17.90;51.30;;;;;;4999378;28;46357;-72
2022/10/12 12:10:34;;;;;;;27.53;15.30;;;18.00;51.10;;;;;;4998939;28;46621;-73
2022/10/12 12:13:18;;;;;;;28.53;16.67;;;18.00;50.70;;;;;;4999942;28;46660;-73
2022/10/12 12:15:46;;;;;;;26.73;14.87;;;18.00;50.70;;;;;;5016669;28;46036;-73
2022/10/12 12:18:16;;;;;;;29.20;14.70;;;18.10;50.60;;;;;;5003585;28;46459;-72
2022/10/12 12:20:45;;;;;;;37.67;15.47;;;18.20;50.10;;;;;;5003067;28;46365;-73
2022/10/12 12:23:32;;;;;;;42.07;21.20;;;18.40;49.70;;;;;;5003266;28;46359;-73
2022/10/12 12:26:14;;;;;;;27.63;15.07;;;18.30;49.80;;;;;;5000025;28;46488;-73
2022/10/12 12:28:43;;;;;;;33.53;18.93;;;18.20;50.00;;;;;;5004048;28;46446;-72
2022/10/12 12:31:29;;;;;;;29.03;15.43;;;18.40;49.70;;;;;;5000840;28;46416;-73
2022/10/12 12:34:11;;;;;;;28.63;15.27;;;18.60;49.00;;;;;;5001823;28;46509;-73
2022/10/12 12:36:41;;;;;;;28.17;14.67;;;18.40;48.60;;;;;;5002240;28;46512;-72
2022/10/12 12:39:22;;;;;;;23.87;13.93;;;18.50;48.90;;;;;;5000818;28;46426;-73
2022/10/12 12:41:55;;;;;;;34.50;18.90;;;18.50;48.80;;;;;;5001117;28;46348;-73